createdAt,value
2023-04-15T00:03:28.212Z,98190.69
2023-04-15T00:07:29.689Z,98183.38
2023-04-15T00:11:31.357Z,98184.75
2023-04-15T00:15:34.135Z,98188.06
2023-04-15T00:19:35.551Z,98182.03
2023-04-15T00:23:37.043Z,98173.31
2023-04-15T00:27:38.564Z,98179.31
2023-04-15T00:31:41.400Z,98176.63
2023-04-15T00:35:42.942Z,98172.25
2023-04-15T00:39:44.346Z,98173.31
2023-04-15T00:43:45.783Z,98172.75
2023-04-15T00:47:48.627Z,98166.91
2023-04-15T00:51:50.293Z,98166.56
2023-04-15T00:55:51.724Z,98161.13
2023-04-15T00:59:53.577Z,98153.81
2023-04-15T01:03:57.530Z,98160.91
2023-04-15T01:07:59.149Z,98152.69
2023-04-15T01:12:00.782Z,98161.97
2023-04-15T01:16:02.535Z,98154.97
2023-04-15T01:20:07.129Z,98140.31
2023-04-15T01:24:10.098Z,98127.97
2023-04-15T01:28:12.962Z,98135.41
2023-04-15T01:32:14.411Z,98146.75
2023-04-15T01:36:15.808Z,98137.34
2023-04-15T01:40:17.313Z,98126.19
2023-04-15T01:44:20.073Z,98132.19
2023-04-15T01:48:21.570Z,98130.44
2023-04-15T01:52:23.002Z,98135.41
2023-04-15T01:56:24.504Z,98125.63
2023-04-15T02:00:27.389Z,98125.66
2023-04-15T02:04:29.049Z,98119.81
2023-04-15T02:08:30.563Z,98117.63
2023-04-15T02:12:31.970Z,98113.81
2023-04-15T02:16:34.795Z,98105.59
2023-04-15T02:20:36.256Z,98103.47
2023-04-15T02:24:37.698Z,98101.81
2023-04-15T02:28:39.114Z,98100.97
2023-04-15T02:32:41.894Z,98094.25
2023-04-15T02:36:43.374Z,98099.84
2023-04-15T02:40:44.801Z,98104.44
2023-04-15T02:44:46.189Z,98107.25
2023-04-15T02:48:48.996Z,98100.75
2023-04-15T02:52:50.513Z,98105.59
2023-04-15T02:56:51.957Z,98107.72
2023-04-15T03:00:53.424Z,98103.47
2023-04-15T03:04:56.170Z,98095.38
2023-04-15T03:08:57.560Z,98094.28
2023-04-15T03:12:58.998Z,98090.03
2023-04-15T03:17:00.429Z,98089.28
2023-04-15T03:21:03.438Z,98085.75
2023-04-15T03:25:05.682Z,98095.38
2023-04-15T03:29:07.137Z,98084.44
2023-04-15T03:33:08.643Z,98100.81
2023-04-15T03:37:11.435Z,98093.25
2023-04-15T03:41:13.061Z,98082.88
2023-04-15T03:45:14.662Z,98087.16
2023-04-15T03:49:16.087Z,98075.78
2023-04-15T03:53:18.948Z,98083.94
2023-04-15T03:57:20.372Z,98060.81
2023-04-15T04:01:21.772Z,98062.13
2023-04-15T04:05:23.221Z,98058.94
2023-04-15T04:09:26.089Z,98058.97
2023-04-15T04:13:27.551Z,98063.13
2023-04-15T04:17:29.060Z,98071.19
2023-04-15T04:21:30.657Z,98067.72
2023-04-15T04:25:33.439Z,98075.44
2023-04-15T04:29:34.860Z,98082.44
2023-04-15T04:33:36.274Z,98085.66
2023-04-15T04:37:37.887Z,98070.50
2023-04-15T04:41:40.806Z,98071.56
2023-04-15T04:45:42.293Z,98066.22
2023-04-15T04:49:43.818Z,98064.59
2023-04-15T04:53:45.272Z,98070.56
2023-04-15T04:57:48.198Z,98071.47
2023-04-15T05:01:50.071Z,98078.38
2023-04-15T05:05:51.823Z,98075.91
2023-04-15T05:09:53.320Z,98069.06
2023-04-15T05:13:56.066Z,98078.69
2023-04-15T05:17:57.497Z,98079.50
2023-04-15T05:21:59.011Z,98081.66
2023-04-15T05:26:00.466Z,98073.88
2023-04-15T05:30:03.471Z,98076.84
2023-04-15T05:34:04.974Z,98078.81
2023-04-15T05:38:06.390Z,98091.66
2023-04-15T05:42:08.155Z,98090.69
2023-04-15T05:46:10.924Z,98096.19
2023-04-15T05:50:12.447Z,98095.75
2023-04-15T05:54:13.955Z,98104.47
2023-04-15T05:58:15.381Z,98109.38
2023-04-15T06:02:18.332Z,98119.25
2023-04-15T06:06:19.905Z,98116.78
2023-04-15T06:10:21.344Z,98117.63
2023-04-15T06:14:22.816Z,98118.16
2023-04-15T06:18:25.575Z,98122.53
2023-04-15T06:22:27.152Z,98129.94
2023-04-15T06:26:28.637Z,98136.22
2023-04-15T06:30:30.063Z,98140.50
2023-04-15T06:34:32.976Z,98137.72
2023-04-15T06:38:34.402Z,98138.03
2023-04-15T06:42:36.050Z,98146.34
2023-04-15T06:46:37.498Z,98146.09
2023-04-15T06:50:40.445Z,98145.00
2023-04-15T06:54:41.901Z,98148.84
2023-04-15T06:58:43.327Z,98146.72
2023-04-15T07:02:45.169Z,98167.66
2023-04-15T07:06:48.043Z,98179.66
2023-04-15T07:10:49.570Z,98171.25
2023-04-15T07:14:51.078Z,98175.66
2023-04-15T07:18:52.539Z,98174.03
2023-04-15T07:22:55.422Z,98181.09
2023-04-15T07:26:58.551Z,98188.00
2023-04-15T07:31:01.056Z,98190.59
2023-04-15T07:35:02.579Z,98179.28
2023-04-15T07:39:05.371Z,98192.81
2023-04-15T07:43:06.785Z,98195.22
2023-04-15T07:47:08.202Z,98190.91
2023-04-15T07:51:09.726Z,98192.34
2023-04-15T07:55:12.475Z,98206.41
2023-04-15T07:59:14.299Z,98205.91
2023-04-15T08:03:16.004Z,98209.88
2023-04-15T08:07:17.504Z,98216.41
2023-04-15T08:11:20.602Z,98221.91
2023-04-15T08:15:22.020Z,98225.44
2023-04-15T08:19:23.421Z,98224.00
2023-04-15T08:23:24.848Z,98229.13
2023-04-15T08:27:28.023Z,98237.28
2023-04-15T08:31:29.750Z,98246.50
2023-04-15T08:35:31.220Z,98240.34
2023-04-15T08:39:32.650Z,98251.25
2023-04-15T08:43:42.457Z,98249.09
2023-04-15T08:47:47.098Z,98260.81
2023-04-15T08:51:49.290Z,98259.47
2023-04-15T08:55:52.693Z,98264.91
2023-04-15T08:59:56.279Z,98262.78
2023-04-15T09:03:59.486Z,98259.03
2023-04-15T09:08:01.009Z,98274.38
2023-04-15T09:12:02.489Z,98265.94
2023-04-15T09:16:06.752Z,98272.53
2023-04-15T09:20:09.677Z,98281.38
2023-04-15T09:24:11.108Z,98277.97
2023-04-15T09:28:12.560Z,98292.44
2023-04-15T09:32:16.333Z,98284.38
2023-04-15T09:36:17.957Z,98292.38
2023-04-15T09:40:31.338Z,98287.22
2023-04-15T09:44:32.827Z,98303.13
2023-04-15T09:48:36.727Z,98311.16
2023-04-15T09:52:42.284Z,98316.84
2023-04-15T09:56:43.739Z,98331.03
2023-04-15T10:00:47.538Z,98326.56
2023-04-15T10:04:52.241Z,98329.84
2023-04-15T10:08:54.168Z,98325.41
2023-04-15T10:12:55.954Z,98335.94
2023-04-15T10:17:01.086Z,98338.41
2023-04-15T10:21:05.491Z,98344.19
2023-04-15T10:25:07.893Z,98350.91
2023-04-15T10:29:10.642Z,98358.63
2023-04-15T10:33:12.887Z,98360.63
2023-04-15T10:37:21.127Z,98356.16
2023-04-15T10:41:24.218Z,98351.53
2023-04-15T10:45:27.393Z,98359.44
2023-04-15T10:49:28.852Z,98358.28
2023-04-15T10:53:31.654Z,98354.44
2023-04-15T10:57:41.049Z,98359.06
2023-04-15T11:01:54.400Z,98362.72
2023-04-15T11:05:55.935Z,98369.56
2023-04-15T11:09:58.840Z,98372.28
2023-04-15T11:14:00.467Z,98377.09
2023-04-15T11:18:10.987Z,98381.72
2023-04-15T11:22:12.503Z,98390.44
2023-04-15T11:26:15.280Z,98392.97
2023-04-15T11:30:19.299Z,98393.50
2023-04-15T11:34:22.934Z,98402.97
2023-04-15T11:38:26.570Z,98405.63
2023-04-15T11:42:39.216Z,98403.47
2023-04-15T11:46:48.077Z,98419.75
2023-04-15T11:50:54.703Z,98412.72
2023-04-15T11:55:03.223Z,98420.56
2023-04-15T11:59:05.971Z,98425.69
2023-04-15T12:03:15.053Z,98426.25
2023-04-15T12:07:19.031Z,98432.75
2023-04-15T12:11:31.380Z,98434.88
2023-04-15T12:15:37.910Z,98443.06
2023-04-15T12:19:40.984Z,98451.84
2023-04-15T12:23:48.835Z,98469.06
2023-04-15T12:27:53.269Z,98465.44
2023-04-15T12:31:57.502Z,98468.00
2023-04-15T12:35:58.917Z,98471.44
2023-04-15T12:40:00.426Z,98474.44
2023-04-15T12:44:02.015Z,98479.50
2023-04-15T12:48:05.413Z,98479.16
2023-04-15T12:52:06.849Z,98486.94
2023-04-15T12:56:08.445Z,98493.25
2023-04-15T13:00:11.204Z,98492.38
2023-04-15T13:04:14.275Z,98500.16
2023-04-15T13:08:15.748Z,98490.88
2023-04-15T13:12:17.180Z,98502.56
2023-04-15T13:16:18.778Z,98516.34
2023-04-15T13:20:21.635Z,98512.63
2023-04-15T13:24:23.136Z,98507.84
2023-04-15T13:28:24.680Z,98515.81
2023-04-15T13:32:26.447Z,98520.06
2023-04-15T13:36:29.257Z,98524.25
2023-04-15T13:40:30.709Z,98531.13
2023-04-15T13:44:32.133Z,98524.06
2023-04-15T13:48:33.594Z,98536.78
2023-04-15T13:52:36.359Z,98533.03
2023-04-15T13:56:37.830Z,98540.22
2023-04-15T14:00:39.278Z,98540.88
2023-04-15T14:04:40.692Z,98545.69
2023-04-15T14:08:43.761Z,98553.25
2023-04-15T14:12:45.281Z,98549.09
2023-04-15T14:16:46.904Z,98561.47
2023-04-15T14:20:48.430Z,98565.94
2023-04-15T14:24:51.280Z,98572.31
2023-04-15T14:28:52.868Z,98575.19
2023-04-15T14:32:54.461Z,98570.91
2023-04-15T14:36:56.549Z,98584.53
2023-04-15T14:40:59.537Z,98593.25
2023-04-15T14:45:01.044Z,98589.97
2023-04-15T14:49:04.230Z,98597.00
2023-04-15T14:53:06.064Z,98604.41
2023-04-15T14:57:09.068Z,98606.41
2023-04-15T15:01:10.637Z,98617.13
2023-04-15T15:05:12.546Z,98610.09
2023-04-15T15:09:14.115Z,98622.47
2023-04-15T15:13:17.619Z,98623.66
2023-04-15T15:17:19.130Z,98625.94
2023-04-15T15:21:20.610Z,98632.00
2023-04-15T15:25:22.363Z,98634.13
2023-04-15T15:29:25.380Z,98637.63
2023-04-15T15:33:28.082Z,98652.75
2023-04-15T15:37:31.136Z,98648.81
2023-04-15T15:41:32.737Z,98656.78
2023-04-15T15:45:38.124Z,98656.91
2023-04-15T15:49:39.854Z,98658.38
2023-04-15T15:53:41.335Z,98670.41
2023-04-15T15:57:42.817Z,98665.47
2023-04-15T16:01:45.766Z,98679.38
2023-04-15T16:05:47.260Z,98675.25
2023-04-15T16:09:48.833Z,98669.91
2023-04-15T16:13:50.932Z,98678.84
2023-04-15T16:17:53.931Z,98684.81
2023-04-15T16:21:55.565Z,98691.44
2023-04-15T16:25:57.038Z,98686.19
2023-04-15T16:29:58.745Z,98693.56
2023-04-15T16:34:02.395Z,98707.50
2023-04-15T16:38:04.020Z,98706.13
2023-04-15T16:42:05.551Z,98708.84
2023-04-15T16:46:08.528Z,98719.16
2023-04-15T16:50:11.588Z,98722.91
2023-04-15T16:54:13.084Z,98718.03
2023-04-15T16:58:14.517Z,98730.22
2023-04-15T17:02:16.146Z,98725.22
2023-04-15T17:06:18.978Z,98742.63
2023-04-15T17:10:20.421Z,98743.63
2023-04-15T17:14:21.919Z,98750.63
2023-04-15T17:18:23.370Z,98752.13
2023-04-15T17:22:26.256Z,98754.31
2023-04-15T17:26:27.793Z,98760.75
2023-04-15T17:30:29.234Z,98762.91
2023-04-15T17:34:49.568Z,98770.50
2023-04-15T17:38:54.193Z,98775.06
2023-04-15T17:42:55.590Z,98776.31
2023-04-15T17:46:57.275Z,98787.81
2023-04-15T17:50:58.771Z,98794.00
2023-04-15T17:55:01.653Z,98808.72
2023-04-15T17:59:03.106Z,98814.94
2023-04-15T18:03:04.721Z,98817.59
2023-04-15T18:07:06.353Z,98814.19
2023-04-15T18:11:09.092Z,98821.97
2023-04-15T18:15:11.584Z,98835.19
2023-04-15T18:19:12.996Z,98839.97
2023-04-15T18:23:14.425Z,98843.09
2023-04-15T18:27:17.649Z,98839.75
2023-04-15T18:31:19.079Z,98845.38
2023-04-15T18:35:20.548Z,98856.03
2023-04-15T18:39:21.994Z,98854.88
2023-04-15T18:43:24.838Z,98860.22
2023-04-15T18:47:27.163Z,98868.19
2023-04-15T18:51:28.686Z,98875.81
2023-04-15T18:55:30.130Z,98867.25
2023-04-15T18:59:33.183Z,98874.59
2023-04-15T19:03:35.203Z,98873.53
2023-04-15T19:07:37.173Z,98883.84
2023-04-15T19:11:38.587Z,98891.44
2023-04-15T19:15:41.346Z,98897.34
2023-04-15T19:19:42.752Z,98899.50
2023-04-15T19:23:44.222Z,98902.09
2023-04-15T19:27:45.668Z,98906.88
2023-04-15T19:31:48.497Z,98903.53
2023-04-15T19:35:50.046Z,98908.63
2023-04-15T19:39:51.649Z,98913.00
2023-04-15T19:43:53.125Z,98923.06
2023-04-15T19:47:55.916Z,98927.34
2023-04-15T19:51:57.355Z,98924.16
2023-04-15T19:55:58.765Z,98928.97
2023-04-15T20:00:00.203Z,98933.41
2023-04-15T20:04:03.261Z,98937.75
2023-04-15T20:08:05.056Z,98934.06
2023-04-15T20:12:48.377Z,98940.72
2023-04-15T20:16:28.163Z,98943.56
2023-04-15T20:20:31.066Z,98952.81
2023-04-15T20:24:32.467Z,98955.41
2023-04-15T20:28:33.889Z,98961.19
2023-04-15T20:32:36.107Z,98961.53
2023-04-15T20:36:39.136Z,98978.81
2023-04-15T20:40:41.774Z,98970.50
2023-04-15T20:44:43.352Z,98981.13
2023-04-15T20:48:44.774Z,98981.94
2023-04-15T20:52:47.571Z,98981.22
2023-04-15T20:56:48.985Z,98982.28
2023-04-15T21:00:50.425Z,98995.00
2023-04-15T21:04:51.853Z,98997.13
2023-04-15T21:08:54.596Z,98999.22
2023-04-15T21:12:56.010Z,99005.38
2023-04-15T21:16:57.746Z,99000.91
2023-04-15T21:21:00.435Z,99012.19
2023-04-15T21:25:03.439Z,99019.34
2023-04-15T21:29:05.236Z,99017.81
2023-04-15T21:33:07.643Z,99028.47
2023-04-15T21:37:09.416Z,99030.03
2023-04-15T21:41:12.146Z,99028.84
2023-04-15T21:45:13.748Z,99031.56
2023-04-15T21:49:15.176Z,99043.03
2023-04-15T21:53:16.623Z,99036.69
2023-04-15T21:57:19.392Z,99041.81
2023-04-15T22:01:21.057Z,99048.16
2023-04-15T22:05:22.542Z,99045.16
2023-04-15T22:09:23.980Z,99051.78
2023-04-15T22:13:26.711Z,99055.84
2023-04-15T22:17:28.220Z,99070.03
2023-04-15T22:21:29.637Z,99065.06
2023-04-15T22:25:32.522Z,99067.19
2023-04-15T22:29:35.295Z,99061.59
2023-04-15T22:33:36.733Z,99067.25
2023-04-15T22:37:38.196Z,99079.25
2023-04-15T22:41:39.788Z,99070.88
2023-04-15T22:45:42.528Z,99086.06
2023-04-15T22:49:43.932Z,99087.38
2023-04-15T22:53:45.343Z,99095.66
2023-04-15T22:57:46.746Z,99093.56
2023-04-15T23:01:49.633Z,99100.66
2023-04-15T23:05:51.161Z,99103.97
2023-04-15T23:09:52.645Z,99103.50
2023-04-15T23:13:54.079Z,99110.16
2023-04-15T23:17:56.861Z,99107.69
2023-04-15T23:21:58.373Z,99111.34
2023-04-15T23:25:59.790Z,99103.78
2023-04-15T23:30:01.285Z,99109.78
2023-04-15T23:34:04.236Z,99116.25
2023-04-15T23:38:05.629Z,99120.56
2023-04-15T23:42:07.082Z,99109.03
2023-04-15T23:46:08.492Z,99117.28
2023-04-15T23:50:11.522Z,99116.56
2023-04-15T23:54:12.923Z,99113.53
2023-04-15T23:58:14.360Z,99118.53
